createdAt,value
2022-11-13T00:00:08.190Z,424.40
2022-11-13T00:00:18.187Z,424.39
2022-11-13T00:00:28.189Z,424.39
2022-11-13T00:00:38.190Z,424.42
2022-11-13T00:00:48.188Z,424.37
2022-11-13T00:00:58.191Z,424.37
2022-11-13T00:01:08.175Z,424.39
2022-11-13T00:01:18.190Z,424.36
2022-11-13T00:01:28.193Z,424.35
2022-11-13T00:01:38.196Z,424.41
2022-11-13T00:01:48.176Z,424.36
2022-11-13T00:01:58.192Z,424.38
2022-11-13T00:02:08.265Z,424.42
2022-11-13T00:02:18.222Z,424.40
2022-11-13T00:02:28.245Z,424.36
2022-11-13T00:02:38.252Z,424.31
2022-11-13T00:02:48.222Z,424.35
2022-11-13T00:02:58.274Z,424.27
2022-11-13T00:03:08.200Z,424.26
2022-11-13T00:03:18.200Z,424.28
2022-11-13T00:03:28.203Z,424.23
2022-11-13T00:03:38.185Z,424.23
2022-11-13T00:03:48.202Z,424.20
2022-11-13T00:03:58.206Z,424.31
2022-11-13T00:04:08.204Z,424.26
2022-11-13T00:04:18.217Z,424.29
2022-11-13T00:04:28.205Z,424.30
2022-11-13T00:04:38.197Z,424.30
2022-11-13T00:04:48.208Z,424.31
2022-11-13T00:04:58.190Z,424.35
2022-11-13T00:05:08.211Z,424.32
2022-11-13T00:05:18.209Z,424.26
2022-11-13T00:05:28.215Z,424.32
2022-11-13T00:05:38.340Z,424.36
2022-11-13T00:05:48.216Z,424.36
2022-11-13T00:05:58.212Z,424.39
2022-11-13T00:06:08.214Z,424.35
2022-11-13T00:06:18.215Z,424.35
2022-11-13T00:06:28.216Z,424.35
2022-11-13T00:06:38.268Z,424.38
2022-11-13T00:06:48.261Z,424.40
2022-11-13T00:06:59.523Z,424.41
2022-11-13T00:07:08.252Z,424.41
2022-11-13T00:07:18.237Z,424.48
2022-11-13T00:07:28.275Z,424.48
2022-11-13T00:07:38.225Z,424.45
2022-11-13T00:07:48.221Z,424.47
2022-11-13T00:07:58.223Z,424.49
2022-11-13T00:08:08.221Z,424.43
2022-11-13T00:08:18.230Z,424.42
2022-11-13T00:08:28.478Z,424.47
2022-11-13T00:08:38.226Z,424.49
2022-11-13T00:08:48.228Z,424.53
2022-11-13T00:08:58.225Z,424.53
2022-11-13T00:09:08.231Z,424.58
2022-11-13T00:09:18.243Z,424.55
2022-11-13T00:09:28.236Z,424.48
2022-11-13T00:09:38.231Z,424.47
2022-11-13T00:09:48.236Z,424.47
2022-11-13T00:09:58.233Z,424.56
2022-11-13T00:10:08.233Z,424.53
2022-11-13T00:10:18.233Z,424.47
2022-11-13T00:10:28.236Z,424.48
2022-11-13T00:10:38.991Z,424.46
2022-11-13T00:10:48.237Z,424.47
2022-11-13T00:10:58.239Z,424.42
2022-11-13T00:11:08.240Z,424.49
2022-11-13T00:11:18.271Z,424.40
2022-11-13T00:11:28.240Z,424.45
2022-11-13T00:11:38.275Z,424.50
2022-11-13T00:11:48.240Z,424.48
2022-11-13T00:11:58.242Z,424.49
2022-11-13T00:12:08.338Z,424.43
2022-11-13T00:12:18.251Z,424.44
2022-11-13T00:12:28.243Z,424.48
2022-11-13T00:12:38.229Z,424.43
2022-11-13T00:12:48.247Z,424.49
2022-11-13T00:12:58.251Z,424.45
2022-11-13T00:13:08.255Z,424.43
2022-11-13T00:13:18.252Z,424.49
2022-11-13T00:13:30.527Z,424.48
2022-11-13T00:13:38.253Z,424.46
2022-11-13T00:13:48.254Z,424.47
2022-11-13T00:13:58.256Z,424.47
2022-11-13T00:14:08.255Z,424.45
2022-11-13T00:14:18.266Z,424.45
2022-11-13T00:14:28.258Z,424.44
2022-11-13T00:14:38.254Z,424.52
2022-11-13T00:14:48.238Z,424.52
2022-11-13T00:14:58.256Z,424.53
2022-11-13T00:15:08.262Z,424.54
2022-11-13T00:15:18.261Z,424.53
2022-11-13T00:15:28.260Z,424.52
2022-11-13T00:15:38.999Z,424.59
2022-11-13T00:15:48.263Z,424.56
2022-11-13T00:15:58.268Z,424.58
2022-11-13T00:16:08.265Z,424.64
2022-11-13T00:16:18.275Z,424.69
2022-11-13T00:16:28.267Z,424.69
2022-11-13T00:16:38.262Z,424.68
2022-11-13T00:16:48.264Z,424.65
2022-11-13T00:16:58.264Z,424.70
2022-11-13T00:17:08.264Z,424.74
2022-11-13T00:17:18.270Z,424.83
2022-11-13T00:17:28.267Z,424.85
2022-11-13T00:17:38.268Z,424.87
2022-11-13T00:17:48.270Z,424.91
2022-11-13T00:17:58.270Z,424.93
2022-11-13T00:18:08.273Z,424.95
2022-11-13T00:18:18.273Z,424.97
2022-11-13T00:18:28.616Z,425.01
2022-11-13T00:18:38.275Z,425.02
2022-11-13T00:18:48.294Z,425.01
2022-11-13T00:18:58.277Z,425.13
2022-11-13T00:19:08.277Z,425.14
2022-11-13T00:19:18.317Z,425.08
2022-11-13T00:19:28.280Z,425.10
2022-11-13T00:19:38.278Z,425.17
2022-11-13T00:19:48.282Z,425.22
2022-11-13T00:19:58.284Z,425.22
2022-11-13T00:20:08.283Z,425.27
2022-11-13T00:20:18.288Z,425.33
2022-11-13T00:20:28.283Z,425.34
2022-11-13T00:20:38.998Z,425.37
2022-11-13T00:20:48.287Z,425.33
2022-11-13T00:20:58.288Z,425.37
2022-11-13T00:21:08.290Z,425.37
2022-11-13T00:21:18.293Z,425.45
2022-11-13T00:21:28.290Z,425.47
2022-11-13T00:21:38.291Z,425.46
2022-11-13T00:21:48.281Z,425.46
2022-11-13T00:21:58.293Z,425.48
2022-11-13T00:22:08.299Z,425.50
2022-11-13T00:22:18.299Z,425.53
2022-11-13T00:22:28.294Z,425.56
2022-11-13T00:22:38.293Z,425.56
2022-11-13T00:22:48.296Z,425.67
2022-11-13T00:22:58.298Z,425.69
2022-11-13T00:23:08.297Z,425.68
2022-11-13T00:23:18.301Z,425.76
2022-11-13T00:23:28.303Z,425.80
2022-11-13T00:23:38.301Z,425.83
2022-11-13T00:23:48.303Z,425.84
2022-11-13T00:23:58.303Z,425.88
2022-11-13T00:24:08.313Z,425.92
2022-11-13T00:24:18.303Z,425.98
2022-11-13T00:24:28.309Z,426.01
2022-11-13T00:24:38.304Z,426.03
2022-11-13T00:24:48.306Z,426.01
2022-11-13T00:24:58.304Z,426.03
2022-11-13T00:25:08.310Z,426.05
2022-11-13T00:25:18.306Z,426.09
2022-11-13T00:25:28.306Z,426.12
2022-11-13T00:25:39.002Z,426.11
2022-11-13T00:25:48.306Z,426.10
2022-11-13T00:25:58.309Z,426.13
2022-11-13T00:26:08.311Z,426.17
2022-11-13T00:26:18.311Z,426.18
2022-11-13T00:26:28.309Z,426.20
2022-11-13T00:26:38.311Z,426.21
2022-11-13T00:26:48.310Z,426.25
2022-11-13T00:26:58.312Z,426.26
2022-11-13T00:27:08.295Z,426.26
2022-11-13T00:27:18.409Z,426.22
2022-11-13T00:27:28.316Z,426.24
2022-11-13T00:27:38.314Z,426.29
2022-11-13T00:27:48.321Z,426.28
2022-11-13T00:27:58.315Z,426.28
2022-11-13T00:28:08.321Z,426.28
2022-11-13T00:28:18.320Z,426.24
2022-11-13T00:28:28.543Z,426.26
2022-11-13T00:28:38.321Z,426.31
2022-11-13T00:28:48.320Z,426.31
2022-11-13T00:28:58.324Z,426.34
2022-11-13T00:29:08.322Z,426.37
2022-11-13T00:29:18.335Z,426.38
2022-11-13T00:29:28.324Z,426.41
2022-11-13T00:29:38.324Z,426.39
2022-11-13T00:29:48.325Z,426.46
2022-11-13T00:29:58.325Z,426.50
2022-11-13T00:30:08.331Z,426.52
2022-11-13T00:30:19.641Z,426.56
2022-11-13T00:30:28.329Z,426.56
2022-11-13T00:30:38.349Z,426.58
2022-11-13T00:30:48.330Z,426.64
2022-11-13T00:30:58.336Z,426.62
2022-11-13T00:31:08.330Z,426.66
2022-11-13T00:31:18.335Z,426.64
2022-11-13T00:31:28.331Z,426.73
2022-11-13T00:31:38.335Z,426.77
2022-11-13T00:31:48.334Z,426.75
2022-11-13T00:31:58.335Z,426.77
2022-11-13T00:32:08.337Z,426.80
2022-11-13T00:32:18.339Z,426.82
2022-11-13T00:32:28.338Z,426.73
2022-11-13T00:32:38.341Z,426.72
2022-11-13T00:32:48.341Z,426.71
2022-11-13T00:32:58.343Z,426.77
2022-11-13T00:33:08.341Z,426.72
2022-11-13T00:33:38.347Z,426.75
2022-11-13T00:33:54.891Z,426.77
2022-11-13T00:34:05.180Z,426.70
2022-11-13T00:34:19.633Z,426.65
2022-11-13T00:34:33.249Z,426.62
2022-11-13T00:34:45.848Z,426.63
2022-11-13T00:34:48.721Z,426.63
2022-11-13T00:34:49.360Z,426.64
2022-11-13T00:34:58.350Z,426.59
2022-11-13T00:35:08.351Z,426.54
2022-11-13T00:35:18.355Z,426.51
2022-11-13T00:35:28.355Z,426.53
2022-11-13T00:35:38.356Z,426.50
2022-11-13T00:35:48.357Z,426.47
2022-11-13T00:35:58.360Z,426.51
2022-11-13T00:36:08.362Z,426.45
2022-11-13T00:36:18.358Z,426.44
2022-11-13T00:36:28.363Z,426.40
2022-11-13T00:36:38.360Z,426.47
2022-11-13T00:36:48.360Z,426.41
2022-11-13T00:36:58.360Z,426.45
2022-11-13T00:37:08.359Z,426.48
2022-11-13T00:37:18.366Z,426.53
2022-11-13T00:37:28.374Z,426.55
2022-11-13T00:37:38.374Z,426.51
2022-11-13T00:37:48.364Z,426.50
2022-11-13T00:37:58.367Z,426.53
2022-11-13T00:38:08.365Z,426.55
2022-11-13T00:38:18.368Z,426.58
2022-11-13T00:38:28.722Z,426.57
2022-11-13T00:38:38.368Z,426.74
2022-11-13T00:38:48.368Z,426.75
2022-11-13T00:38:58.559Z,426.81
2022-11-13T00:39:08.380Z,426.85
2022-11-13T00:39:18.380Z,426.93
2022-11-13T00:39:28.376Z,426.92
2022-11-13T00:39:38.376Z,426.95
2022-11-13T00:39:48.375Z,426.95
2022-11-13T00:39:59.779Z,427.00
2022-11-13T00:40:08.376Z,427.06
2022-11-13T00:40:18.374Z,427.11
2022-11-13T00:40:28.376Z,427.15
2022-11-13T00:40:38.376Z,427.20
2022-11-13T00:40:48.379Z,427.18
2022-11-13T00:40:58.378Z,427.16
2022-11-13T00:41:08.379Z,427.18
2022-11-13T00:41:18.382Z,427.18
2022-11-13T00:41:28.381Z,427.24
2022-11-13T00:41:38.380Z,427.31
2022-11-13T00:41:48.381Z,427.37
2022-11-13T00:41:58.382Z,427.33
2022-11-13T00:42:08.381Z,427.32
2022-11-13T00:42:18.385Z,427.31
2022-11-13T00:42:28.477Z,427.30
2022-11-13T00:42:38.385Z,427.32
2022-11-13T00:42:48.388Z,427.29
2022-11-13T00:42:58.390Z,427.33
2022-11-13T00:43:08.387Z,427.30
2022-11-13T00:43:18.448Z,427.30
2022-11-13T00:43:28.387Z,427.33
2022-11-13T00:43:38.373Z,427.30
2022-11-13T00:43:48.393Z,427.27
2022-11-13T00:43:58.391Z,427.25
2022-11-13T00:44:08.397Z,427.14
2022-11-13T00:44:18.394Z,427.21
2022-11-13T00:44:28.399Z,427.22
2022-11-13T00:44:38.394Z,427.21
2022-11-13T00:44:48.406Z,427.28
2022-11-13T00:44:58.397Z,427.22
2022-11-13T00:45:08.401Z,427.23
2022-11-13T00:45:18.381Z,427.23
2022-11-13T00:45:28.400Z,427.28
2022-11-13T00:45:38.524Z,427.20
2022-11-13T00:45:48.400Z,427.25
2022-11-13T00:45:58.399Z,427.28
2022-11-13T00:46:08.402Z,427.27
2022-11-13T00:46:18.400Z,427.35
2022-11-13T00:46:28.401Z,427.38
2022-11-13T00:46:38.404Z,427.43
2022-11-13T00:46:48.405Z,427.38
2022-11-13T00:46:58.403Z,427.41
2022-11-13T00:47:08.405Z,427.39
2022-11-13T00:47:18.407Z,427.48
2022-11-13T00:47:28.407Z,427.53
2022-11-13T00:47:38.406Z,427.49
2022-11-13T00:47:48.416Z,427.52
2022-11-13T00:47:58.407Z,427.50
2022-11-13T00:48:08.409Z,427.53
2022-11-13T00:48:18.411Z,427.61
2022-11-13T00:48:28.912Z,427.58
2022-11-13T00:48:38.412Z,427.56
2022-11-13T00:48:48.413Z,427.66
2022-11-13T00:48:58.412Z,427.62
2022-11-13T00:49:08.395Z,427.62
2022-11-13T00:49:18.416Z,427.59
2022-11-13T00:49:28.416Z,427.63
2022-11-13T00:49:38.415Z,427.67
2022-11-13T00:49:48.415Z,427.64
2022-11-13T00:49:58.418Z,427.59
2022-11-13T00:50:08.417Z,427.67
2022-11-13T00:50:18.418Z,427.62
2022-11-13T00:50:28.403Z,427.59
2022-11-13T00:50:39.005Z,427.58
2022-11-13T00:50:48.421Z,427.60
2022-11-13T00:50:58.423Z,427.59
2022-11-13T00:51:08.422Z,427.56
2022-11-13T00:51:18.425Z,427.51
2022-11-13T00:51:28.425Z,427.47
2022-11-13T00:51:38.424Z,427.52
2022-11-13T00:51:48.427Z,427.54
2022-11-13T00:51:58.427Z,427.45
2022-11-13T00:52:08.427Z,427.43
2022-11-13T00:52:18.431Z,427.42
2022-11-13T00:52:28.430Z,427.46
2022-11-13T00:52:38.433Z,427.48
2022-11-13T00:52:48.429Z,427.48
2022-11-13T00:52:58.433Z,427.47
2022-11-13T00:53:08.434Z,427.50
2022-11-13T00:53:18.475Z,427.47
2022-11-13T00:53:28.433Z,427.54
2022-11-13T00:53:38.438Z,427.51
2022-11-13T00:53:48.439Z,427.50
2022-11-13T00:53:58.440Z,427.51
2022-11-13T00:54:08.425Z,427.51
2022-11-13T00:54:18.440Z,427.54
2022-11-13T00:54:28.443Z,427.55
2022-11-13T00:54:38.440Z,427.61
2022-11-13T00:54:48.442Z,427.68
2022-11-13T00:54:58.439Z,427.64
2022-11-13T00:55:08.443Z,427.63
2022-11-13T00:55:18.441Z,427.69
2022-11-13T00:55:28.441Z,427.64
2022-11-13T00:55:39.014Z,427.69
2022-11-13T00:55:48.448Z,427.64
2022-11-13T00:55:58.442Z,427.68
2022-11-13T00:56:08.447Z,427.67
2022-11-13T00:56:18.445Z,427.79
2022-11-13T00:56:28.445Z,427.74
2022-11-13T00:56:38.446Z,427.76
2022-11-13T00:56:48.447Z,427.75
2022-11-13T00:56:58.446Z,427.73
2022-11-13T00:57:08.446Z,427.71
2022-11-13T00:57:18.449Z,427.71
2022-11-13T00:57:28.448Z,427.79
2022-11-13T00:57:38.542Z,427.78
2022-11-13T00:57:48.449Z,427.78
2022-11-13T00:57:58.432Z,427.76
2022-11-13T00:58:08.454Z,427.77
2022-11-13T00:58:18.451Z,427.76
2022-11-13T00:58:28.871Z,427.79
2022-11-13T00:58:38.451Z,427.81
2022-11-13T00:58:48.456Z,427.80
2022-11-13T00:58:58.455Z,427.80
2022-11-13T00:59:08.456Z,427.78
2022-11-13T00:59:18.438Z,427.76
2022-11-13T00:59:28.470Z,427.77
2022-11-13T00:59:38.459Z,427.77
2022-11-13T00:59:48.462Z,427.77
2022-11-13T00:59:58.440Z,427.76
2022-11-13T01:00:08.460Z,427.77
2022-11-13T01:00:18.464Z,427.77
2022-11-13T01:00:28.463Z,427.81
2022-11-13T01:00:39.009Z,427.84
2022-11-13T01:00:48.466Z,427.89
2022-11-13T01:00:58.464Z,427.91
2022-11-13T01:01:08.595Z,427.94
2022-11-13T01:01:18.502Z,427.94
2022-11-13T01:01:28.560Z,427.91
2022-11-13T01:01:38.504Z,427.92
2022-11-13T01:01:48.519Z,428.03
2022-11-13T01:01:58.540Z,428.02
2022-11-13T01:02:08.470Z,428.07
2022-11-13T01:02:18.470Z,428.05
2022-11-13T01:02:28.474Z,428.08
2022-11-13T01:02:38.472Z,428.08
2022-11-13T01:02:48.473Z,428.04
2022-11-13T01:02:58.472Z,428.12
2022-11-13T01:03:08.474Z,428.11
2022-11-13T01:03:18.474Z,428.13
2022-11-13T01:03:28.477Z,428.10
2022-11-13T01:03:38.480Z,428.09
2022-11-13T01:03:48.479Z,428.12
2022-11-13T01:03:58.479Z,428.10
2022-11-13T01:04:08.478Z,428.10
2022-11-13T01:04:18.480Z,428.11
2022-11-13T01:04:28.495Z,428.04
2022-11-13T01:04:38.480Z,428.06
2022-11-13T01:04:48.488Z,428.11
2022-11-13T01:04:58.481Z,428.07
2022-11-13T01:05:08.493Z,428.03
2022-11-13T01:05:18.490Z,428.04
2022-11-13T01:05:28.494Z,428.01
2022-11-13T01:05:38.993Z,428.01
2022-11-13T01:05:48.490Z,427.96
2022-11-13T01:05:58.486Z,427.97
2022-11-13T01:06:08.491Z,427.99
2022-11-13T01:06:18.491Z,427.93
2022-11-13T01:06:28.489Z,427.92
2022-11-13T01:06:38.544Z,427.99
2022-11-13T01:06:48.552Z,427.90
2022-11-13T01:06:58.534Z,427.94
2022-11-13T01:07:08.518Z,427.87
2022-11-13T01:07:18.534Z,427.95
2022-11-13T01:07:28.502Z,427.93
2022-11-13T01:07:38.506Z,427.88
2022-11-13T01:07:48.497Z,427.90
2022-11-13T01:07:58.496Z,427.89
2022-11-13T01:08:08.499Z,427.90
2022-11-13T01:08:18.499Z,427.92
2022-11-13T01:08:28.690Z,427.98
2022-11-13T01:08:38.502Z,428.02
2022-11-13T01:08:48.505Z,428.04
2022-11-13T01:08:58.500Z,428.04
2022-11-13T01:09:08.502Z,428.06
2022-11-13T01:09:18.505Z,428.03
2022-11-13T01:09:28.517Z,427.99
2022-11-13T01:09:38.503Z,428.02
2022-11-13T01:09:48.506Z,428.01
2022-11-13T01:09:58.488Z,428.01
2022-11-13T01:10:08.510Z,428.09
2022-11-13T01:10:18.506Z,428.06
2022-11-13T01:10:28.512Z,428.05
2022-11-13T01:10:38.537Z,428.03
2022-11-13T01:10:52.973Z,428.07
2022-11-13T01:10:59.510Z,428.07
2022-11-13T01:11:08.511Z,428.07
2022-11-13T01:11:18.514Z,428.06
2022-11-13T01:11:28.508Z,428.06
2022-11-13T01:11:38.511Z,428.05
2022-11-13T01:11:48.514Z,428.03
2022-11-13T01:11:58.515Z,427.97
2022-11-13T01:12:08.511Z,427.99
2022-11-13T01:12:18.499Z,427.92
2022-11-13T01:12:28.513Z,427.96
2022-11-13T01:12:38.514Z,427.95
2022-11-13T01:12:48.608Z,427.92
2022-11-13T01:12:58.518Z,427.93
2022-11-13T01:13:08.521Z,427.92
2022-11-13T01:13:18.519Z,427.91
2022-11-13T01:13:28.520Z,427.97
2022-11-13T01:13:38.502Z,427.92
2022-11-13T01:13:48.521Z,427.89
2022-11-13T01:13:58.521Z,427.97
2022-11-13T01:14:08.523Z,427.96
2022-11-13T01:14:18.528Z,427.98
2022-11-13T01:14:28.536Z,428.00
2022-11-13T01:14:38.506Z,428.00
2022-11-13T01:14:48.526Z,428.07
2022-11-13T01:14:58.527Z,428.08
2022-11-13T01:15:08.528Z,428.11
2022-11-13T01:15:18.527Z,428.14
2022-11-13T01:15:28.532Z,428.16
2022-11-13T01:15:38.538Z,428.17
2022-11-13T01:15:48.529Z,428.21
2022-11-13T01:15:58.529Z,428.23
2022-11-13T01:16:08.529Z,428.28
2022-11-13T01:16:18.538Z,428.34
2022-11-13T01:16:28.534Z,428.36
2022-11-13T01:16:38.535Z,428.35
2022-11-13T01:16:48.534Z,428.38
2022-11-13T01:16:58.538Z,428.50
2022-11-13T01:17:08.537Z,428.51
2022-11-13T01:17:18.539Z,428.49
2022-11-13T01:17:28.539Z,428.60
2022-11-13T01:17:38.537Z,428.62
2022-11-13T01:17:48.538Z,428.64
2022-11-13T01:17:58.539Z,428.62
2022-11-13T01:18:08.544Z,428.66
2022-11-13T01:18:18.542Z,428.63
2022-11-13T01:18:28.805Z,428.69
2022-11-13T01:18:38.544Z,428.75
2022-11-13T01:18:48.545Z,428.77
2022-11-13T01:18:58.547Z,428.76
2022-11-13T01:19:08.546Z,428.71
2022-11-13T01:19:18.544Z,428.70
2022-11-13T01:19:28.586Z,428.74
2022-11-13T01:19:38.529Z,428.77
2022-11-13T01:19:48.558Z,428.80
2022-11-13T01:19:58.551Z,428.78
2022-11-13T01:20:08.551Z,428.77
2022-11-13T01:20:18.550Z,428.77
2022-11-13T01:20:28.553Z,428.75
2022-11-13T01:20:38.554Z,428.68
2022-11-13T01:20:48.557Z,428.67
2022-11-13T01:20:58.556Z,428.68
2022-11-13T01:21:08.556Z,428.66
2022-11-13T01:21:18.558Z,428.64
2022-11-13T01:21:28.565Z,428.59
2022-11-13T01:21:38.558Z,428.56
2022-11-13T01:21:48.551Z,428.60
2022-11-13T01:21:58.559Z,428.58
2022-11-13T01:22:08.561Z,428.57
2022-11-13T01:22:18.563Z,428.56
2022-11-13T01:22:28.562Z,428.57
2022-11-13T01:22:38.561Z,428.60
2022-11-13T01:22:48.546Z,428.60
2022-11-13T01:22:58.565Z,428.58
2022-11-13T01:23:08.566Z,428.56
2022-11-13T01:23:18.565Z,428.52
2022-11-13T01:23:28.566Z,428.59
2022-11-13T01:23:38.576Z,428.59
2022-11-13T01:23:48.570Z,428.60
2022-11-13T01:23:58.568Z,428.60
2022-11-13T01:24:08.571Z,428.62
2022-11-13T01:24:18.570Z,428.65
2022-11-13T01:24:28.570Z,428.62
2022-11-13T01:24:38.574Z,428.63
2022-11-13T01:24:48.577Z,428.64
2022-11-13T01:24:58.572Z,428.65
2022-11-13T01:25:08.574Z,428.65
2022-11-13T01:25:18.574Z,428.69
2022-11-13T01:25:28.572Z,428.74
2022-11-13T01:25:38.575Z,428.73
2022-11-13T01:25:48.578Z,428.80
2022-11-13T01:25:58.575Z,428.81
2022-11-13T01:26:08.576Z,428.84
2022-11-13T01:26:18.577Z,428.86
2022-11-13T01:26:28.576Z,428.88
2022-11-13T01:26:38.577Z,428.81
2022-11-13T01:26:48.581Z,428.92
2022-11-13T01:26:58.581Z,428.85
2022-11-13T01:27:08.579Z,428.91
2022-11-13T01:27:18.585Z,428.90
2022-11-13T01:27:28.586Z,428.91
2022-11-13T01:27:38.581Z,428.91
2022-11-13T01:27:48.583Z,428.92
2022-11-13T01:27:58.682Z,428.94
2022-11-13T01:28:08.585Z,428.89
2022-11-13T01:28:18.586Z,428.98
2022-11-13T01:28:28.804Z,428.91
2022-11-13T01:28:38.586Z,428.90
2022-11-13T01:28:48.568Z,428.91
2022-11-13T01:28:58.588Z,428.94
2022-11-13T01:29:08.588Z,428.94
2022-11-13T01:29:18.587Z,428.95
2022-11-13T01:29:28.601Z,428.90
2022-11-13T01:29:38.591Z,428.93
2022-11-13T01:29:48.591Z,429.04
2022-11-13T01:29:58.593Z,429.02
2022-11-13T01:30:08.609Z,429.00
2022-11-13T01:30:18.593Z,429.05
2022-11-13T01:30:28.594Z,429.07
2022-11-13T01:30:38.594Z,429.09
2022-11-13T01:30:48.593Z,429.15
2022-11-13T01:30:58.596Z,429.18
2022-11-13T01:31:08.596Z,429.19
2022-11-13T01:31:18.596Z,429.25
2022-11-13T01:31:28.595Z,429.27
2022-11-13T01:31:38.601Z,429.31
2022-11-13T01:31:48.601Z,429.38
2022-11-13T01:31:58.598Z,429.41
2022-11-13T01:32:08.601Z,429.45
2022-11-13T01:32:18.602Z,429.50
2022-11-13T01:32:28.601Z,429.45
2022-11-13T01:32:38.599Z,429.45
2022-11-13T01:32:48.601Z,429.54
2022-11-13T01:32:58.601Z,429.50
2022-11-13T01:33:08.603Z,429.50
2022-11-13T01:33:18.609Z,429.51
2022-11-13T01:33:28.586Z,429.50
2022-11-13T01:33:38.587Z,429.50
2022-11-13T01:33:48.605Z,429.52
2022-11-13T01:33:58.607Z,429.53
2022-11-13T01:34:08.607Z,429.51
2022-11-13T01:34:18.607Z,429.56
2022-11-13T01:34:28.601Z,429.51
2022-11-13T01:34:38.608Z,429.52
2022-11-13T01:34:48.608Z,429.53
2022-11-13T01:34:58.606Z,429.59
2022-11-13T01:35:08.606Z,429.57
2022-11-13T01:35:18.608Z,429.49
2022-11-13T01:35:28.608Z,429.55
2022-11-13T01:35:38.609Z,429.48
2022-11-13T01:35:48.610Z,429.57
2022-11-13T01:35:58.613Z,429.59
2022-11-13T01:36:08.609Z,429.54
2022-11-13T01:36:18.596Z,429.51
2022-11-13T01:36:28.624Z,429.53
2022-11-13T01:36:38.613Z,429.57
2022-11-13T01:36:48.614Z,429.55
2022-11-13T01:36:58.618Z,429.62
2022-11-13T01:37:08.618Z,429.64
2022-11-13T01:37:18.616Z,429.61
2022-11-13T01:37:28.619Z,429.71
2022-11-13T01:37:38.619Z,429.70
2022-11-13T01:37:48.620Z,429.71
2022-11-13T01:37:58.618Z,429.71
2022-11-13T01:38:08.619Z,429.75
2022-11-13T01:38:18.628Z,429.75
2022-11-13T01:38:31.809Z,429.74
2022-11-13T01:38:39.622Z,429.75
2022-11-13T01:38:48.623Z,429.71
2022-11-13T01:38:58.625Z,429.80
2022-11-13T01:39:08.621Z,429.82
2022-11-13T01:39:18.627Z,429.82
2022-11-13T01:39:28.643Z,429.83
2022-11-13T01:39:38.627Z,429.79
2022-11-13T01:39:48.630Z,429.72
2022-11-13T01:39:58.627Z,429.72
2022-11-13T01:40:08.612Z,429.72
2022-11-13T01:40:18.634Z,429.81
2022-11-13T01:40:28.632Z,429.75
2022-11-13T01:40:38.637Z,429.73
2022-11-13T01:40:48.633Z,429.65
2022-11-13T01:40:58.637Z,429.68
2022-11-13T01:41:08.636Z,429.58
2022-11-13T01:41:23.133Z,429.55
2022-11-13T01:41:29.638Z,429.54
2022-11-13T01:41:38.638Z,429.58
2022-11-13T01:41:48.646Z,429.54
2022-11-13T01:41:58.639Z,429.55
2022-11-13T01:42:08.642Z,429.55
2022-11-13T01:42:18.641Z,429.51
2022-11-13T01:42:28.641Z,429.51
2022-11-13T01:42:38.641Z,429.51
2022-11-13T01:42:48.641Z,429.50
2022-11-13T01:42:58.643Z,429.52
2022-11-13T01:43:08.736Z,429.56
2022-11-13T01:43:18.642Z,429.58
2022-11-13T01:43:28.643Z,429.56
2022-11-13T01:43:38.650Z,429.56
2022-11-13T01:43:48.647Z,429.62
2022-11-13T01:43:58.646Z,429.57
2022-11-13T01:44:08.648Z,429.59
2022-11-13T01:44:18.650Z,429.60
2022-11-13T01:44:28.660Z,429.63
2022-11-13T01:44:38.651Z,429.61
2022-11-13T01:44:48.653Z,429.65
2022-11-13T01:44:58.653Z,429.67
2022-11-13T01:45:08.650Z,429.68
2022-11-13T01:45:18.653Z,429.69
2022-11-13T01:45:28.654Z,429.72
2022-11-13T01:45:38.653Z,429.70
2022-11-13T01:45:48.654Z,429.78
2022-11-13T01:45:58.658Z,429.79
2022-11-13T01:46:08.656Z,429.78
2022-11-13T01:46:18.659Z,429.80
2022-11-13T01:46:28.649Z,429.81
2022-11-13T01:46:38.662Z,429.86
2022-11-13T01:46:48.661Z,429.90
2022-11-13T01:46:58.662Z,429.88
2022-11-13T01:47:08.662Z,429.85
2022-11-13T01:47:18.666Z,429.88
2022-11-13T01:47:28.662Z,429.89
2022-11-13T01:47:38.664Z,429.89
2022-11-13T01:47:48.676Z,429.87
2022-11-13T01:47:58.669Z,429.84
2022-11-13T01:48:08.668Z,429.87
2022-11-13T01:48:18.651Z,429.86
2022-11-13T01:48:29.075Z,429.80
2022-11-13T01:48:38.653Z,429.78
2022-11-13T01:48:48.676Z,429.77
2022-11-13T01:48:58.655Z,429.78
2022-11-13T01:49:08.673Z,429.83
2022-11-13T01:49:18.671Z,429.86
2022-11-13T01:49:28.686Z,429.84
2022-11-13T01:49:38.675Z,429.86
2022-11-13T01:49:48.677Z,429.84
2022-11-13T01:49:58.661Z,429.86
2022-11-13T01:50:08.678Z,429.87
2022-11-13T01:50:18.683Z,429.84
2022-11-13T01:50:28.686Z,429.82
2022-11-13T01:50:38.690Z,429.82
2022-11-13T01:50:48.711Z,429.84
2022-11-13T01:50:58.684Z,429.85
2022-11-13T01:51:08.682Z,429.85
2022-11-13T01:51:18.682Z,429.86
2022-11-13T01:51:28.686Z,429.87
2022-11-13T01:51:38.684Z,429.86
2022-11-13T01:51:48.688Z,429.93
2022-11-13T01:51:58.687Z,429.92
2022-11-13T01:52:08.687Z,429.93
2022-11-13T01:52:18.687Z,429.91
2022-11-13T01:52:28.691Z,429.92
2022-11-13T01:52:38.692Z,429.95
2022-11-13T01:52:48.697Z,429.94
2022-11-13T01:52:58.691Z,430.01
2022-11-13T01:53:08.692Z,429.98
2022-11-13T01:53:18.691Z,429.99
2022-11-13T01:53:28.696Z,430.00
2022-11-13T01:53:38.695Z,429.97
2022-11-13T01:53:48.697Z,429.94
2022-11-13T01:53:58.698Z,429.94
2022-11-13T01:54:08.695Z,429.95
2022-11-13T01:54:18.698Z,429.93
2022-11-13T01:54:28.709Z,429.96
2022-11-13T01:54:38.699Z,430.00
2022-11-13T01:54:48.700Z,430.02
2022-11-13T01:54:58.698Z,430.00
2022-11-13T01:55:08.698Z,430.02
2022-11-13T01:55:18.700Z,430.02
2022-11-13T01:55:28.705Z,430.09
2022-11-13T01:55:38.701Z,430.07
2022-11-13T01:55:48.705Z,430.12
2022-11-13T01:55:58.710Z,430.13
2022-11-13T01:56:08.708Z,430.13
2022-11-13T01:56:18.690Z,430.12
2022-11-13T01:56:28.706Z,430.11
2022-11-13T01:56:38.710Z,430.16
2022-11-13T01:56:48.709Z,430.16
2022-11-13T01:56:58.711Z,430.18
2022-11-13T01:57:08.710Z,430.17
2022-11-13T01:57:18.715Z,430.17
2022-11-13T01:57:28.715Z,430.18
2022-11-13T01:57:38.716Z,430.22
2022-11-13T01:57:48.718Z,430.19
2022-11-13T01:57:58.719Z,430.21
2022-11-13T01:58:08.716Z,430.24
2022-11-13T01:58:18.809Z,430.19
2022-11-13T01:58:28.973Z,430.24
2022-11-13T01:58:38.717Z,430.24
2022-11-13T01:58:48.719Z,430.23
2022-11-13T01:58:58.725Z,430.35
2022-11-13T01:59:08.722Z,430.36
2022-11-13T01:59:18.721Z,430.37
2022-11-13T01:59:28.765Z,430.40
2022-11-13T01:59:38.723Z,430.37
2022-11-13T01:59:48.722Z,430.43
2022-11-13T01:59:58.729Z,430.44
2022-11-13T02:00:08.737Z,430.46
2022-11-13T02:00:18.729Z,430.45
2022-11-13T02:00:28.710Z,430.45
2022-11-13T02:00:38.728Z,430.48
2022-11-13T02:00:48.731Z,430.48
2022-11-13T02:00:58.733Z,430.53
2022-11-13T02:01:08.730Z,430.55
2022-11-13T02:01:18.821Z,430.50
2022-11-13T02:01:28.773Z,430.56
2022-11-13T02:01:38.840Z,430.58
2022-11-13T02:01:48.744Z,430.57
2022-11-13T02:01:58.808Z,430.61
2022-11-13T02:02:08.827Z,430.64
2022-11-13T02:02:18.742Z,430.67
2022-11-13T02:02:28.746Z,430.72
2022-11-13T02:02:38.740Z,430.78
2022-11-13T02:02:48.738Z,430.81
2022-11-13T02:02:58.737Z,430.82
2022-11-13T02:03:08.739Z,430.84
2022-11-13T02:03:18.738Z,430.90
2022-11-13T02:03:28.737Z,430.91
2022-11-13T02:03:38.740Z,430.93
2022-11-13T02:03:48.754Z,430.93
2022-11-13T02:03:58.741Z,430.92
2022-11-13T02:04:08.741Z,430.93
2022-11-13T02:04:18.746Z,430.88
2022-11-13T02:04:28.739Z,430.88
2022-11-13T02:04:38.744Z,430.96
2022-11-13T02:04:48.746Z,430.99
2022-11-13T02:04:58.753Z,431.02
2022-11-13T02:05:08.747Z,431.04